Stations météo

réclame
Mon MeteoGroup
Lus-La-Croix-Haute, France (7587): Température de l'air & dewpoint: 14.09.2020 18:00:00 - 20.09.2020 18:00:00 (CEST)Lus-La-Croix-Haute, France (7587): Vitesse du vent & gusts: 14.09.2020 18:00:00 - 20.09.2020 18:00:00 (CEST)Lus-La-Croix-Haute, France (7587): Direction du vent: 14.09.2020 18:00:00 - 20.09.2020 18:00:00 (CEST)Lus-La-Croix-Haute, France (7587): Quantités de précipitations: 14.09.2020 18:00:00 - 20.09.2020 18:00:00 (CEST)
Date & Time tt [°C] td [°C] ff [km/h] ff [knt] fx [km/h] fx [knt] dd rr [mm]
20.09.2020 18:00:00 17,0 11,9 2 1 13 7 NNE 0,0
20.09.2020 17:00:00 17,4 12,1 5 3 14 8 SSW 4,1
20.09.2020 16:00:00 - - - - - - - -
20.09.2020 15:00:00 15,4 12,5 4 2 22 12 SW 0,0
20.09.2020 14:00:00 16,0 12,7 0 0 20 11 N 0,0
20.09.2020 13:00:00 15,1 12,4 13 7 27 15 SSW 0,0
20.09.2020 12:00:00 16,8 13,7 5 3 11 6 SSE 0,0
20.09.2020 11:00:00 13,6 13,1 3 2 8 4 SE 0,0
20.09.2020 10:00:00 - - - - - - - -
20.09.2020 09:00:00 11,1 10,5 2 1 8 4 SSW 0,0
20.09.2020 08:00:00 11,2 10,6 0 0 5 3 N 0,0
20.09.2020 07:00:00 11,4 10,8 0 0 6 3 N 0,0
20.09.2020 06:00:00 11,6 10,8 3 2 7 4 SE 0,0
20.09.2020 05:00:00 12,1 11,3 2 1 10 5 SE 0,0
20.09.2020 04:00:00 12,9 12,0 4 2 12 6 NNE 0,0
20.09.2020 03:00:00 13,6 12,0 4 2 21 11 SSE 0,2
20.09.2020 02:00:00 16,2 10,5 7 4 37 20 S 0,0
20.09.2020 01:00:00 18,1 8,6 17 9 36 19 SSE 0,0
20.09.2020 00:00:00 13,6 10,4 2 1 16 9 NW 0,0
19.09.2020 23:00:00 13,2 11,1 4 2 10 6 ENE 0,2
19.09.2020 22:00:00 13,2 11,3 2 1 8 4 NW 0,2
19.09.2020 21:00:00 14,0 11,5 3 1 9 5 NNW 0,2
19.09.2020 20:00:00 15,9 11,7 3 1 8 4 N 0,6
19.09.2020 19:00:00 18,1 12,3 2 1 36 20 W 0,2
19.09.2020 18:00:00 19,3 15,2 3 2 10 5 S 0,2
19.09.2020 17:00:00 19,3 15,0 3 1 10 5 WNW 0,2
19.09.2020 16:00:00 18,7 14,8 3 1 29 16 N 0,2
19.09.2020 15:00:00 19,8 9,9 16 9 48 26 S 0,0
19.09.2020 14:00:00 21,8 9,0 19 10 45 24 SSE 0,0
19.09.2020 13:00:00 20,2 8,8 21 11 45 24 SSE 0,0
19.09.2020 12:00:00 20,1 11,3 12 7 48 26 S 0,2
19.09.2020 11:00:00 19,9 9,2 15 8 41 22 SSE 0,0
19.09.2020 10:00:00 20,7 9,3 24 13 40 22 S 0,0
19.09.2020 09:00:00 18,0 9,1 13 7 30 16 SSW 0,0
19.09.2020 08:00:00 17,2 8,6 16 8 32 18 S 0,0
19.09.2020 07:00:00 17,8 9,4 22 12 37 20 S 0,0
19.09.2020 06:00:00 17,9 9,0 18 10 41 22 S 0,0
19.09.2020 05:00:00 17,2 9,6 21 11 46 25 SSE 0,4
19.09.2020 04:00:00 17,2 9,4 18 10 41 22 SE 0,0
19.09.2020 03:00:00 16,2 11,1 6 3 26 14 SSE 0,2
19.09.2020 02:00:00 16,3 11,7 3 2 13 7 NNW 0,0
19.09.2020 01:00:00 16,8 10,2 5 3 10 6 NNW 0,0
19.09.2020 00:00:00 16,2 10,1 4 2 9 5 N 0,0
18.09.2020 23:00:00 15,8 10,3 3 1 7 4 WNW 0,0
18.09.2020 22:00:00 - - - - - - - -
18.09.2020 21:00:00 16,5 10,3 3 2 7 4 NNW 0,0
18.09.2020 20:00:00 18,3 10,4 2 1 19 10 WSW 0,0
18.09.2020 19:00:00 20,3 11,0 7 4 22 12 SE 0,0
18.09.2020 18:00:00 22,9 9,7 14 7 27 14 SSW 0,0
18.09.2020 17:00:00 24,9 9,2 15 8 34 19 SSW 0,0
18.09.2020 16:00:00 25,7 9,1 10 5 37 20 SSW 0,0
18.09.2020 15:00:00 25,3 10,3 13 7 38 21 SSW 0,0
18.09.2020 14:00:00 24,9 10,7 12 6 30 16 SW 0,0
18.09.2020 13:00:00 23,9 11,2 10 6 31 17 S 0,0
18.09.2020 12:00:00 22,5 11,9 17 9 35 19 S 0,0
18.09.2020 11:00:00 19,2 12,9 2 1 7 4 S 0,0
18.09.2020 10:00:00 13,7 12,8 0 0 8 5 N 0,0
18.09.2020 09:00:00 10,8 10,5 2 1 5 3 ESE 0,0
18.09.2020 08:00:00 9,0 8,5 0 0 6 4 N 0,2
18.09.2020 07:00:00 9,4 8,8 0 0 6 3 N 0,0
18.09.2020 06:00:00 9,8 9,2 2 1 6 3 N 0,0
18.09.2020 05:00:00 10,3 9,7 2 1 5 3 N 0,0
18.09.2020 04:00:00 - - - - - - - -
18.09.2020 03:00:00 11,4 10,6 0 0 5 3 N 0,0
18.09.2020 02:00:00 11,6 10,5 2 1 6 4 ESE 0,0
18.09.2020 01:00:00 12,3 11,0 2 1 6 3 E 0,0
18.09.2020 00:00:00 13,2 11,6 0 0 8 5 N 0,0
17.09.2020 23:00:00 14,5 11,8 3 2 5 3 N 0,0
17.09.2020 22:00:00 - - - - - - - -
17.09.2020 21:00:00 16,8 12,7 3 2 8 4 N 0,0
17.09.2020 20:00:00 17,6 12,1 3 2 9 5 NW 0,0
17.09.2020 19:00:00 - - - - - - - -
17.09.2020 18:00:00 - - - - - - - -
17.09.2020 17:00:00 23,2 9,6 9 5 22 12 S 0,0
17.09.2020 16:00:00 26,9 8,3 8 4 24 13 S 0,0
17.09.2020 15:00:00 26,5 10,2 10 5 23 13 SSW 0,0
17.09.2020 14:00:00 26,3 12,4 9 5 28 15 SW 0,0
17.09.2020 13:00:00 25,5 12,3 6 4 14 8 S 0,0
17.09.2020 12:00:00 23,8 12,4 3 1 11 6 ENE 0,0
17.09.2020 11:00:00 20,3 14,4 6 3 11 6 SSE 0,0
17.09.2020 10:00:00 15,3 13,3 0 0 6 3 N 0,2
17.09.2020 09:00:00 12,6 12,1 0 0 5 3 N 0,0
17.09.2020 08:00:00 10,9 10,3 0 0 5 3 N 0,0
17.09.2020 07:00:00 11,2 10,6 3 2 5 3 N 0,0
17.09.2020 06:00:00 11,3 10,7 2 1 6 4 NNW 0,0
17.09.2020 05:00:00 11,6 10,8 2 1 6 4 N 0,0
17.09.2020 04:00:00 11,7 10,9 2 1 5 3 SE 0,0
17.09.2020 03:00:00 12,1 11,0 0 0 7 4 N 0,2
17.09.2020 02:00:00 12,5 11,6 0 0 5 3 N 0,0
17.09.2020 01:00:00 12,9 11,6 3 2 5 3 NNE 0,0
17.09.2020 00:00:00 13,4 12,0 3 1 6 4 ESE 0,0
16.09.2020 23:00:00 14,5 12,5 0 0 10 5 N 0,0
16.09.2020 22:00:00 15,4 12,9 3 1 10 6 NNE 0,0
16.09.2020 21:00:00 17,1 13,0 2 1 10 5 ESE 0,0
16.09.2020 20:00:00 18,3 13,4 4 2 9 5 ENE 0,0
16.09.2020 19:00:00 21,0 13,4 5 3 18 10 NNW 0,0
16.09.2020 18:00:00 20,4 13,8 8 5 29 16 NNW 0,0
16.09.2020 17:00:00 24,9 13,4 10 6 36 19 NW 0,0
16.09.2020 16:00:00 24,7 14,5 14 8 33 18 NW 0,0
16.09.2020 15:00:00 24,4 14,5 14 8 35 19 NW 0,0
16.09.2020 14:00:00 24,1 13,0 12 7 29 15 NW 0,0
16.09.2020 13:00:00 24,1 13,9 5 3 22 12 N 0,0
16.09.2020 12:00:00 21,1 14,3 11 6 23 13 WNW 0,0
16.09.2020 11:00:00 19,1 15,8 3 2 7 4 S 0,0
16.09.2020 10:00:00 15,0 14,7 0 0 6 3 N 0,0
16.09.2020 09:00:00 11,7 11,4 0 0 6 3 N 0,0
16.09.2020 08:00:00 9,8 9,3 2 1 6 3 ESE 0,0
16.09.2020 07:00:00 10,4 9,9 0 0 4 2 N 0,0
16.09.2020 06:00:00 10,3 9,7 0 0 3 2 N 0,2
16.09.2020 05:00:00 10,8 10,2 0 0 3 2 N 0,0
16.09.2020 04:00:00 11,1 10,5 0 0 4 2 N 0,0
16.09.2020 03:00:00 11,6 11,0 2 1 4 2 NE 0,0
16.09.2020 02:00:00 12,2 11,6 0 0 4 2 N 0,0
16.09.2020 01:00:00 12,8 12,2 3 1 5 3 SSE 0,0
16.09.2020 00:00:00 13,4 12,6 0 0 5 3 N 0,0
15.09.2020 23:00:00 14,1 13,3 0 0 5 3 N 0,2
15.09.2020 22:00:00 - - - - - - - -
15.09.2020 21:00:00 16,1 14,8 0 0 5 3 N 0,0
15.09.2020 20:00:00 17,0 15,5 3 2 24 13 S 4,8
15.09.2020 19:00:00 19,0 14,7 18 10 40 22 N 2,2
15.09.2020 18:00:00 23,1 13,6 8 4 22 12 NNW 0,0
15.09.2020 17:00:00 23,2 13,9 8 5 19 10 NW 0,0
15.09.2020 16:00:00 24,0 12,9 5 3 16 9 W 0,0
15.09.2020 15:00:00 25,4 11,2 7 4 21 11 WNW 0,0
15.09.2020 14:00:00 25,3 13,8 5 3 16 8 W 0,0
15.09.2020 13:00:00 25,1 13,6 4 2 14 7 ENE 0,0
15.09.2020 12:00:00 23,4 13,3 5 3 12 6 SSE 0,0
15.09.2020 11:00:00 17,6 14,1 0 0 5 3 N 0,0
15.09.2020 10:00:00 14,1 13,5 0 0 4 2 N 0,0
15.09.2020 09:00:00 12,6 12,1 0 0 3 2 N 0,0
15.09.2020 08:00:00 11,2 10,7 2 1 4 2 N 0,2
15.09.2020 07:00:00 11,1 10,5 0 0 5 3 N 0,0
15.09.2020 06:00:00 11,5 10,9 0 0 4 2 N 0,0
15.09.2020 05:00:00 12,1 11,3 0 0 4 2 N 0,0
15.09.2020 04:00:00 12,4 11,6 0 0 6 3 N 0,0
15.09.2020 03:00:00 13,0 11,9 2 1 4 2 ESE 0,0
15.09.2020 02:00:00 13,9 12,6 0 0 6 3 N 0,0
15.09.2020 01:00:00 14,8 13,0 0 0 5 3 N 0,0
15.09.2020 00:00:00 15,9 13,2 0 0 6 4 N 0,0
14.09.2020 23:00:00 16,7 13,4 3 2 6 3 NE 0,0
14.09.2020 22:00:00 17,8 13,3 3 2 7 4 N 0,0
14.09.2020 21:00:00 19,3 13,7 2 1 15 8 ESE 0,0
14.09.2020 20:00:00 21,6 13,2 5 3 21 12 NNW 0,0
14.09.2020 19:00:00 23,1 13,3 10 5 25 13 NNW 0,0
14.09.2020 18:00:00 26,1 13,9 8 4 23 12 W 0,0

tt = Température de l'air
td = dewpoint
ff = Vitesse du vent
fx = gusts
dd = Direction du vent
rr = Quantités de précipitations

stations d'obs. à proximité